This is the latest recevied weather packets stored in our database for station/object DO3HUM-5. If no packets are shown the sender has not sent any weather packets the latest 10 day(s).
| Time | Temp. | Humidity | Pressure | Rain* | Wind** | Luminosity | Snow |
|---|---|---|---|---|---|---|---|
| 1777572658 | 15° C | 51% | 1036.6 hPa | 0 mm | - | - | - |
| 1777572055 | 15° C | 50% | 1036.6 hPa | 0 mm | - | - | - |
| 1777571452 | 16.11° C | 45% | 1036.5 hPa | 0 mm | - | - | - |
| 1777570850 | 16.11° C | 47% | 1036.7 hPa | 0 mm | - | - | - |
| 1777570246 | 16.11° C | 45% | 1036.7 hPa | 0 mm | - | - | - |
| 1777569644 | 16.67° C | 43% | 1036.6 hPa | 0 mm | - | - | - |
| 1777569041 | 17.22° C | 42% | 1036.6 hPa | 0 mm | - | - | - |
| 1777568438 | 17.22° C | 42% | 1036.8 hPa | 0 mm | - | - | - |
| 1777567838 | 16.67° C | 42% | 1036.8 hPa | 0 mm | - | - | - |
| 1777567232 | 17.22° C | 41% | 1036.8 hPa | 0 mm | - | - | - |
| 1777566629 | 16.67° C | 42% | 1036.9 hPa | 0 mm | - | - | - |
| 1777566027 | 16.67° C | 43% | 1037.1 hPa | 0 mm | - | - | - |
| 1777565424 | 16.67° C | 42% | 1037.2 hPa | 0 mm | - | - | - |
| 1777564822 | 16.67° C | 42% | 1037.2 hPa | 0 mm | - | - | - |
| 1777564218 | 16.67° C | 42% | 1037.1 hPa | 0 mm | - | - | - |
| 1777563617 | 16.67° C | 42% | 1037.2 hPa | 0 mm | - | - | - |
| 1777563073 | 16.11° C | 42% | 1037.3 hPa | 0 mm | - | - | - |
| 1777562469 | 16.11° C | 41% | 1037.3 hPa | 0 mm | - | - | - |
| 1777561867 | 16.11° C | 43% | 1037.4 hPa | 0 mm | - | - | - |
| 1777561264 | 16.67° C | 41% | 1037.5 hPa | 0 mm | - | - | - |
| 1777560662 | 16.67° C | 41% | 1037.5 hPa | 0 mm | - | - | - |
| 1777560058 | 16.67° C | 40% | 1037.5 hPa | 0 mm | - | - | - |
| 1777559455 | 17.22° C | 39% | 1037.6 hPa | 0 mm | - | - | - |
| 1777558853 | 17.22° C | 40% | 1037.9 hPa | 0 mm | - | - | - |
| 1777558250 | 17.78° C | 37% | 1037.9 hPa | 0 mm | - | - | - |
* Rain latest hour (hover to see other rain measurements)
** Current wind speed in m/s (hover to see current wind gust speed)